createdAt,value
2023-01-31T00:01:50.988Z,5.40
2023-01-31T00:04:18.517Z,5.40
2023-01-31T00:06:51.558Z,5.50
2023-01-31T00:09:19.608Z,5.40
2023-01-31T00:11:47.118Z,5.50
2023-01-31T00:14:20.204Z,5.50
2023-01-31T00:16:48.268Z,5.40
2023-01-31T00:19:16.223Z,5.40
2023-01-31T00:21:45.318Z,5.40
2023-01-31T00:24:14.129Z,5.40
2023-01-31T00:26:42.315Z,5.40
2023-01-31T00:29:10.089Z,5.40
2023-01-31T00:31:37.892Z,5.40
2023-01-31T00:34:06.166Z,5.50
2023-01-31T00:36:35.058Z,5.50
2023-01-31T00:39:04.219Z,5.50
2023-01-31T00:41:32.224Z,5.50
2023-01-31T00:44:00.115Z,5.50
2023-01-31T00:46:28.319Z,5.40
2023-01-31T00:48:56.671Z,5.40
2023-01-31T00:51:26.813Z,5.40
2023-01-31T00:53:55.212Z,5.40
2023-01-31T00:56:24.218Z,5.50
2023-01-31T00:58:52.969Z,5.50
2023-01-31T01:01:23.681Z,5.50
2023-01-31T01:03:51.570Z,5.50
2023-01-31T01:06:19.909Z,5.60
2023-01-31T01:08:48.197Z,5.50
2023-01-31T01:11:19.019Z,5.50
2023-01-31T01:13:47.061Z,5.50
2023-01-31T01:16:20.834Z,5.50
2023-01-31T01:18:49.304Z,5.50
2023-01-31T01:21:23.065Z,5.60
2023-01-31T01:23:51.163Z,5.60
2023-01-31T01:26:30.764Z,5.60
2023-01-31T01:29:01.995Z,5.70
2023-01-31T01:31:30.779Z,5.70
2023-01-31T01:34:04.761Z,5.70
2023-01-31T01:36:36.862Z,5.70
2023-01-31T01:39:06.721Z,5.70
2023-01-31T01:41:34.418Z,5.80
2023-01-31T01:44:25.557Z,5.80
2023-01-31T01:46:53.273Z,5.70
2023-01-31T01:49:32.449Z,5.70
2023-01-31T01:52:03.171Z,5.70
2023-01-31T01:54:53.957Z,5.70
2023-01-31T01:57:31.364Z,5.70
2023-01-31T02:00:06.326Z,5.70
2023-01-31T02:02:33.922Z,5.70
2023-01-31T02:05:01.964Z,5.80
2023-01-31T02:07:30.214Z,5.70
2023-01-31T02:10:13.165Z,5.80
2023-01-31T02:12:41.022Z,5.80
2023-01-31T02:15:09.462Z,5.80
2023-01-31T02:17:37.187Z,5.70
2023-01-31T02:20:35.293Z,5.70
2023-01-31T02:23:18.191Z,5.70
2023-01-31T02:26:04.702Z,5.80
2023-01-31T02:29:00.463Z,6.00
2023-01-31T02:31:41.367Z,6.00
2023-01-31T02:34:42.257Z,5.90
2023-01-31T02:37:21.681Z,6.10
2023-01-31T02:40:13.131Z,6.10
2023-01-31T02:43:11.508Z,6.20
2023-01-31T02:46:02.703Z,6.20
2023-01-31T02:48:46.711Z,6.20
2023-01-31T02:51:25.003Z,6.20
2023-01-31T02:54:44.932Z,6.20
2023-01-31T02:57:12.601Z,6.20
2023-01-31T02:59:40.495Z,6.20
2023-01-31T03:02:08.590Z,6.20
2023-01-31T03:04:36.910Z,6.30
2023-01-31T03:07:26.833Z,6.30
2023-01-31T03:10:09.321Z,6.30
2023-01-31T03:13:02.508Z,6.30
2023-01-31T03:16:32.941Z,6.20
2023-01-31T03:19:18.959Z,6.20
2023-01-31T03:21:53.183Z,6.20
2023-01-31T03:24:26.353Z,6.30
2023-01-31T03:26:57.243Z,6.30
2023-01-31T03:29:26.264Z,6.30
2023-01-31T03:31:58.879Z,6.40
2023-01-31T03:34:27.555Z,6.40
2023-01-31T03:37:16.515Z,6.40
2023-01-31T03:39:57.563Z,6.30
2023-01-31T03:42:29.007Z,6.40
2023-01-31T03:44:57.069Z,6.40
2023-01-31T03:47:39.130Z,6.40
2023-01-31T03:50:14.134Z,6.40
2023-01-31T03:52:46.806Z,6.40
2023-01-31T03:55:20.551Z,6.40
2023-01-31T03:57:54.409Z,6.40
2023-01-31T04:04:45.608Z,6.40
2023-01-31T04:07:13.488Z,6.40
2023-01-31T04:09:41.804Z,6.50
2023-01-31T04:12:14.100Z,6.50
2023-01-31T04:14:42.512Z,6.50
2023-01-31T04:17:10.084Z,6.50
2023-01-31T04:19:37.393Z,6.50
2023-01-31T04:22:04.961Z,6.60
2023-01-31T04:24:33.155Z,6.60
2023-01-31T04:27:00.685Z,6.60
2023-01-31T04:29:28.312Z,6.60
2023-01-31T04:31:56.091Z,6.60
2023-01-31T04:34:23.668Z,6.60
2023-01-31T04:36:51.164Z,6.70
2023-01-31T04:39:18.858Z,6.70
2023-01-31T04:41:46.104Z,6.70
2023-01-31T04:44:13.561Z,6.70
2023-01-31T04:46:41.188Z,6.60
2023-01-31T04:49:09.800Z,6.60
2023-01-31T04:51:37.256Z,6.70
2023-01-31T04:54:04.952Z,6.70
2023-01-31T04:56:32.802Z,6.70
2023-01-31T04:59:00.649Z,6.70
2023-01-31T05:01:29.204Z,6.70
2023-01-31T05:03:56.718Z,6.70
2023-01-31T05:06:24.361Z,6.70
2023-01-31T05:08:54.420Z,6.70
2023-01-31T05:11:21.909Z,6.80
2023-01-31T05:13:49.662Z,6.80
2023-01-31T05:20:41.040Z,6.80
2023-01-31T05:23:08.897Z,6.80
2023-01-31T05:25:37.969Z,6.80
2023-01-31T05:28:05.912Z,6.80
2023-01-31T05:30:33.681Z,6.80
2023-01-31T05:33:01.334Z,6.90
2023-01-31T05:35:28.710Z,6.90
2023-01-31T05:37:56.303Z,6.90
2023-01-31T05:40:23.627Z,6.90
2023-01-31T05:42:55.659Z,6.90
2023-01-31T05:45:23.483Z,6.90
2023-01-31T05:47:51.010Z,7.00
2023-01-31T05:50:19.011Z,7.00
2023-01-31T05:53:03.121Z,7.00
2023-01-31T05:55:31.221Z,7.00
2023-01-31T05:58:01.434Z,7.00
2023-01-31T06:00:29.261Z,7.00
2023-01-31T06:03:00.938Z,7.00
2023-01-31T06:05:28.715Z,7.00
2023-01-31T06:07:56.914Z,6.90
2023-01-31T06:10:24.605Z,6.90
2023-01-31T06:12:51.855Z,6.80
2023-01-31T06:15:19.515Z,6.80
2023-01-31T06:17:47.353Z,6.80
2023-01-31T06:20:15.005Z,6.80
2023-01-31T06:22:42.406Z,6.80
2023-01-31T06:25:10.297Z,6.70
2023-01-31T06:27:37.808Z,6.70
2023-01-31T06:30:05.749Z,6.70
2023-01-31T06:32:33.203Z,6.70
2023-01-31T06:35:00.634Z,6.70
2023-01-31T06:37:28.212Z,6.70
2023-01-31T06:44:18.901Z,6.70
2023-01-31T06:46:46.452Z,6.80
2023-01-31T06:49:14.107Z,6.80
2023-01-31T06:51:41.606Z,6.80
2023-01-31T06:54:08.964Z,6.80
2023-01-31T06:56:36.363Z,6.80
2023-01-31T06:59:03.943Z,6.80
2023-01-31T07:06:08.063Z,6.80
2023-01-31T07:08:37.163Z,6.80
2023-01-31T07:11:05.501Z,6.80
2023-01-31T07:13:33.799Z,6.90
2023-01-31T07:16:01.541Z,6.90
2023-01-31T07:18:30.129Z,7.00
2023-01-31T07:20:57.758Z,7.00
2023-01-31T07:23:25.350Z,7.00
2023-01-31T07:25:52.989Z,7.10
2023-01-31T07:28:20.601Z,7.10
2023-01-31T07:30:48.627Z,7.10
2023-01-31T07:33:19.053Z,7.10
2023-01-31T07:35:46.551Z,7.10
2023-01-31T07:38:14.264Z,7.20
2023-01-31T07:40:41.706Z,7.20
2023-01-31T07:43:09.261Z,7.30
2023-01-31T07:45:39.287Z,7.30
2023-01-31T07:48:07.509Z,7.40
2023-01-31T07:50:34.894Z,7.30
2023-01-31T07:53:02.392Z,7.30
2023-01-31T07:55:29.907Z,7.40
2023-01-31T07:57:57.274Z,7.40
2023-01-31T08:00:43.101Z,7.40
2023-01-31T08:03:33.825Z,7.50
2023-01-31T08:06:12.177Z,7.50
2023-01-31T08:08:41.447Z,7.50
2023-01-31T08:11:09.460Z,7.50
2023-01-31T08:13:38.606Z,7.50
2023-01-31T08:16:09.358Z,7.50
2023-01-31T08:22:49.835Z,7.60
2023-01-31T08:25:19.592Z,7.60
2023-01-31T08:27:48.203Z,7.70
2023-01-31T08:30:15.832Z,7.70
2023-01-31T08:32:43.595Z,7.80
2023-01-31T08:35:11.087Z,7.70
2023-01-31T08:37:39.758Z,7.80
2023-01-31T08:40:09.936Z,7.80
2023-01-31T08:42:37.464Z,7.80
2023-01-31T08:45:06.442Z,7.90
2023-01-31T08:47:34.197Z,7.90
2023-01-31T08:50:01.616Z,7.80
2023-01-31T08:52:29.371Z,7.90
2023-01-31T08:54:56.799Z,7.90
2023-01-31T08:57:24.355Z,7.90
2023-01-31T08:59:51.946Z,7.90
2023-01-31T09:02:19.589Z,8.00
2023-01-31T09:04:46.947Z,8.00
2023-01-31T09:07:14.478Z,8.00
2023-01-31T09:09:42.193Z,8.00
2023-01-31T09:12:09.646Z,8.10
2023-01-31T09:14:37.249Z,8.00
2023-01-31T09:17:05.227Z,8.10
2023-01-31T09:19:34.111Z,8.10
2023-01-31T09:22:01.784Z,8.20
2023-01-31T09:24:29.949Z,8.20
2023-01-31T09:26:57.908Z,8.40
2023-01-31T09:29:25.601Z,8.40
2023-01-31T09:31:55.345Z,8.50
2023-01-31T09:34:24.155Z,8.50
2023-01-31T09:36:51.848Z,8.50
2023-01-31T09:39:19.436Z,8.50
2023-01-31T09:42:18.437Z,8.50
2023-01-31T09:45:02.519Z,8.60
2023-01-31T09:47:52.792Z,8.60
2023-01-31T09:50:23.877Z,8.60
2023-01-31T09:52:51.939Z,8.60
2023-01-31T09:55:49.164Z,8.60
2023-01-31T09:58:55.668Z,8.70
2023-01-31T10:05:44.054Z,8.70
2023-01-31T10:08:40.035Z,8.70
2023-01-31T10:11:14.396Z,8.70
2023-01-31T10:13:52.487Z,8.70
2023-01-31T10:16:50.795Z,8.70
2023-01-31T10:19:25.485Z,8.80
2023-01-31T10:22:00.730Z,8.80
2023-01-31T10:24:29.281Z,8.80
2023-01-31T10:27:04.294Z,8.80
2023-01-31T10:29:46.746Z,8.80
2023-01-31T10:32:37.702Z,8.90
2023-01-31T10:35:26.455Z,8.90
2023-01-31T10:37:59.665Z,8.90
2023-01-31T10:40:35.786Z,9.00
2023-01-31T10:43:19.028Z,9.00
2023-01-31T10:45:46.923Z,9.10
2023-01-31T10:48:26.352Z,9.10
2023-01-31T10:51:05.900Z,9.10
2023-01-31T10:53:54.383Z,9.20
2023-01-31T10:56:30.932Z,9.30
2023-01-31T10:59:01.483Z,9.40
2023-01-31T11:01:29.581Z,9.40
2023-01-31T11:03:57.808Z,9.40
2023-01-31T11:06:25.742Z,9.40
2023-01-31T11:08:59.287Z,9.40
2023-01-31T11:11:29.147Z,9.40
2023-01-31T11:14:05.840Z,9.50
2023-01-31T11:16:39.463Z,9.60
2023-01-31T11:19:40.967Z,9.60
2023-01-31T11:22:17.245Z,9.60
2023-01-31T11:24:49.141Z,9.50
2023-01-31T11:27:39.751Z,9.60
2023-01-31T11:30:27.343Z,9.70
2023-01-31T11:32:55.486Z,9.90
2023-01-31T11:35:29.292Z,10.10
2023-01-31T11:38:09.045Z,10.10
2023-01-31T11:40:40.908Z,10.20
2023-01-31T11:43:14.856Z,10.30
2023-01-31T11:45:47.359Z,10.40
2023-01-31T11:48:27.194Z,10.50
2023-01-31T11:50:57.569Z,10.60
2023-01-31T11:53:38.813Z,10.70
2023-01-31T11:56:12.112Z,10.80
2023-01-31T11:58:40.748Z,10.90
2023-01-31T12:01:17.800Z,10.80
2023-01-31T12:04:05.227Z,10.80
2023-01-31T12:06:35.500Z,10.80
2023-01-31T12:09:06.094Z,10.80
2023-01-31T12:11:35.956Z,10.80
2023-01-31T12:14:06.536Z,10.80
2023-01-31T12:16:37.463Z,10.90
2023-01-31T12:19:14.449Z,11.00
2023-01-31T12:22:09.843Z,11.10
2023-01-31T12:24:56.033Z,11.10
2023-01-31T12:28:01.456Z,11.10
2023-01-31T12:30:29.330Z,11.30
2023-01-31T12:33:07.579Z,11.40
2023-01-31T12:35:50.011Z,11.60
2023-01-31T12:38:54.837Z,11.90
2023-01-31T12:41:37.954Z,12.40
2023-01-31T12:44:16.156Z,12.60
2023-01-31T12:47:10.494Z,12.60
2023-01-31T12:49:54.204Z,12.70
2023-01-31T12:52:58.749Z,12.80
2023-01-31T12:55:31.090Z,13.20
2023-01-31T12:58:04.964Z,13.20
2023-01-31T13:00:55.686Z,13.40
2023-01-31T13:03:45.095Z,13.60
2023-01-31T13:06:15.632Z,13.60
2023-01-31T13:09:07.851Z,13.50
2023-01-31T13:11:54.141Z,13.60
2023-01-31T13:14:24.588Z,13.30
2023-01-31T13:16:58.392Z,13.10
2023-01-31T13:19:41.284Z,12.80
2023-01-31T13:22:20.865Z,12.50
2023-01-31T13:24:53.938Z,12.30
2023-01-31T13:27:38.248Z,12.20
2023-01-31T13:30:20.038Z,12.10
2023-01-31T13:32:51.982Z,12.00
2023-01-31T13:35:26.335Z,11.80
2023-01-31T13:38:00.239Z,11.80
2023-01-31T13:40:32.444Z,11.70
2023-01-31T13:43:05.832Z,11.70
2023-01-31T13:45:38.948Z,12.10
2023-01-31T13:48:29.354Z,12.20
2023-01-31T13:51:03.535Z,12.30
2023-01-31T13:53:36.935Z,12.50
2023-01-31T13:56:10.584Z,12.70
2023-01-31T13:58:39.386Z,13.00
2023-01-31T14:01:38.256Z,12.90
2023-01-31T14:04:12.445Z,12.60
2023-01-31T14:07:08.289Z,12.30
2023-01-31T14:09:40.337Z,12.10
2023-01-31T14:12:10.439Z,12.10
2023-01-31T14:14:43.986Z,12.00
2023-01-31T14:17:34.385Z,12.00
2023-01-31T14:20:23.877Z,12.00
2023-01-31T14:23:25.435Z,12.10
2023-01-31T14:25:53.075Z,12.10
2023-01-31T14:28:21.686Z,12.30
2023-01-31T14:30:49.427Z,12.30
2023-01-31T14:33:23.410Z,12.10
2023-01-31T14:36:18.242Z,12.00
2023-01-31T14:39:28.508Z,11.80
2023-01-31T14:41:55.991Z,11.60
2023-01-31T14:44:50.997Z,11.50
2023-01-31T14:51:46.935Z,11.30
2023-01-31T14:54:32.343Z,11.30
2023-01-31T14:57:31.195Z,11.30
2023-01-31T15:00:05.903Z,11.20
2023-01-31T15:02:33.924Z,11.20
2023-01-31T15:05:12.642Z,11.20
2023-01-31T15:08:02.033Z,11.10
2023-01-31T15:11:06.741Z,11.00
2023-01-31T15:13:56.973Z,11.00
2023-01-31T15:16:24.777Z,11.00
2023-01-31T15:19:00.058Z,11.00
2023-01-31T15:21:55.900Z,11.00
2023-01-31T15:24:44.547Z,11.00
2023-01-31T15:27:43.108Z,11.00
2023-01-31T15:30:16.721Z,11.00
2023-01-31T15:33:15.133Z,11.00
2023-01-31T15:36:00.146Z,11.00
2023-01-31T15:38:38.332Z,10.90
2023-01-31T15:41:22.818Z,11.00
2023-01-31T15:43:56.818Z,10.90
2023-01-31T15:46:30.759Z,11.00
2023-01-31T15:49:00.472Z,10.90
2023-01-31T15:51:28.383Z,10.90
2023-01-31T15:54:07.010Z,10.90
2023-01-31T15:56:39.139Z,10.90
2023-01-31T15:59:13.239Z,10.90
2023-01-31T16:01:47.944Z,10.90
2023-01-31T16:04:15.334Z,10.80
2023-01-31T16:06:43.224Z,10.90
2023-01-31T16:09:33.460Z,10.90
2023-01-31T16:12:02.611Z,10.80
2023-01-31T16:14:30.572Z,10.70
2023-01-31T16:16:59.002Z,10.70
2023-01-31T16:19:30.270Z,10.70
2023-01-31T16:21:58.589Z,10.70
2023-01-31T16:24:26.452Z,10.60
2023-01-31T16:27:06.884Z,10.60
2023-01-31T16:29:53.001Z,10.50
2023-01-31T16:32:25.204Z,10.40
2023-01-31T16:35:06.350Z,10.30
2023-01-31T16:37:40.701Z,10.30
2023-01-31T16:40:22.678Z,10.30
2023-01-31T16:42:50.598Z,10.30
2023-01-31T16:45:30.740Z,10.30
2023-01-31T16:48:24.889Z,10.20
2023-01-31T16:50:54.428Z,10.10
2023-01-31T16:53:33.743Z,10.10
2023-01-31T16:56:13.436Z,10.00
2023-01-31T16:58:57.980Z,10.00
2023-01-31T17:01:32.324Z,9.90
2023-01-31T17:04:17.331Z,9.90
2023-01-31T17:06:50.270Z,9.90
2023-01-31T17:09:23.659Z,9.90
2023-01-31T17:11:54.415Z,9.90
2023-01-31T17:14:22.842Z,9.90
2023-01-31T17:16:52.042Z,9.80
2023-01-31T17:19:19.858Z,9.80
2023-01-31T17:21:48.594Z,9.80
2023-01-31T17:24:19.389Z,9.80
2023-01-31T17:26:47.162Z,9.80
2023-01-31T17:29:14.834Z,9.80
2023-01-31T17:31:42.548Z,9.90
2023-01-31T17:34:16.796Z,9.70
2023-01-31T17:36:45.581Z,9.70
2023-01-31T17:39:13.151Z,9.70
2023-01-31T17:41:41.554Z,9.70
2023-01-31T17:44:14.134Z,9.80
2023-01-31T17:46:43.327Z,9.70
2023-01-31T17:49:11.418Z,9.70
2023-01-31T17:51:39.093Z,9.70
2023-01-31T17:54:06.579Z,9.70
2023-01-31T17:56:34.729Z,9.80
2023-01-31T17:59:02.315Z,9.80
2023-01-31T18:01:31.755Z,9.80
2023-01-31T18:04:00.737Z,9.70
2023-01-31T18:06:28.792Z,9.70
2023-01-31T18:08:56.529Z,9.70
2023-01-31T18:11:26.469Z,9.70
2023-01-31T18:13:53.978Z,9.70
2023-01-31T18:16:21.892Z,9.80
2023-01-31T18:18:50.175Z,9.70
2023-01-31T18:21:21.198Z,9.60
2023-01-31T18:28:25.575Z,9.60
2023-01-31T18:30:53.201Z,9.60
2023-01-31T18:33:20.837Z,9.60
2023-01-31T18:35:56.862Z,9.60
2023-01-31T18:38:25.272Z,9.50
2023-01-31T18:40:53.183Z,9.50
2023-01-31T18:43:21.676Z,9.70
2023-01-31T18:45:49.437Z,9.70
2023-01-31T18:48:16.997Z,9.60
2023-01-31T18:50:44.253Z,9.50
2023-01-31T18:53:12.877Z,9.40
2023-01-31T18:55:40.517Z,9.30
2023-01-31T18:58:07.872Z,9.30
2023-01-31T19:00:35.306Z,9.30
2023-01-31T19:03:02.907Z,9.20
2023-01-31T19:05:30.640Z,9.10
2023-01-31T19:07:58.327Z,9.20
2023-01-31T19:10:25.899Z,9.10
2023-01-31T19:12:53.263Z,9.10
2023-01-31T19:15:21.208Z,9.10
2023-01-31T19:17:48.773Z,9.00
2023-01-31T19:20:16.059Z,8.90
2023-01-31T19:22:43.638Z,8.90
2023-01-31T19:25:11.281Z,8.80
2023-01-31T19:27:40.677Z,8.70
2023-01-31T19:30:09.033Z,8.70
2023-01-31T19:32:36.580Z,8.70
2023-01-31T19:35:04.282Z,8.70
2023-01-31T19:37:31.882Z,8.80
2023-01-31T19:39:59.263Z,8.80
2023-01-31T19:42:28.142Z,8.80
2023-01-31T19:44:55.607Z,8.80
2023-01-31T19:47:24.994Z,8.70
2023-01-31T19:49:52.422Z,8.70
2023-01-31T19:52:19.976Z,8.80
2023-01-31T19:54:47.605Z,8.70
2023-01-31T19:57:14.972Z,8.90
2023-01-31T19:59:44.161Z,8.80
2023-01-31T20:02:12.379Z,8.90
2023-01-31T20:04:40.479Z,8.80
2023-01-31T20:11:45.072Z,8.90
2023-01-31T20:14:12.822Z,8.90
2023-01-31T20:16:40.307Z,8.90
2023-01-31T20:19:07.760Z,8.90
2023-01-31T20:21:35.614Z,8.90
2023-01-31T20:24:03.163Z,8.80
2023-01-31T20:26:32.248Z,8.80
2023-01-31T20:28:59.628Z,8.80
2023-01-31T20:31:27.076Z,8.80
2023-01-31T20:33:54.930Z,8.80
2023-01-31T20:36:23.833Z,8.80
2023-01-31T20:38:51.657Z,8.80
2023-01-31T20:41:19.471Z,8.70
2023-01-31T20:43:47.130Z,8.70
2023-01-31T20:46:15.054Z,8.70
2023-01-31T20:48:43.267Z,8.70
2023-01-31T20:51:11.383Z,8.60
2023-01-31T20:53:39.285Z,8.60
2023-01-31T20:56:11.168Z,8.50
2023-01-31T20:58:41.627Z,8.50
2023-01-31T21:01:10.639Z,8.50
2023-01-31T21:03:38.223Z,8.40
2023-01-31T21:06:07.281Z,8.30
2023-01-31T21:08:38.179Z,8.30
2023-01-31T21:11:08.336Z,8.20
2023-01-31T21:13:36.863Z,8.20
2023-01-31T21:16:06.914Z,8.10
2023-01-31T21:18:37.682Z,8.00
2023-01-31T21:21:15.084Z,8.00
2023-01-31T21:23:44.977Z,7.90
2023-01-31T21:26:13.962Z,7.80
2023-01-31T21:28:43.991Z,7.80
2023-01-31T21:31:17.011Z,7.70
2023-01-31T21:33:48.075Z,7.70
2023-01-31T21:36:18.450Z,7.70
2023-01-31T21:38:47.362Z,7.60
2023-01-31T21:41:34.471Z,7.60
2023-01-31T21:44:03.020Z,7.50
2023-01-31T21:46:30.641Z,7.40
2023-01-31T21:49:00.317Z,7.40
2023-01-31T21:51:28.875Z,7.40
2023-01-31T21:53:56.577Z,7.30
2023-01-31T21:56:26.923Z,7.30
2023-01-31T21:58:55.772Z,7.30
2023-01-31T22:01:29.806Z,7.20
2023-01-31T22:03:58.266Z,7.20
2023-01-31T22:06:34.418Z,7.10
2023-01-31T22:09:02.225Z,7.10
2023-01-31T22:11:33.207Z,7.10
2023-01-31T22:14:03.003Z,7.00
2023-01-31T22:16:31.342Z,6.90
2023-01-31T22:19:00.828Z,6.90
2023-01-31T22:21:33.879Z,6.90
2023-01-31T22:24:03.771Z,6.80
2023-01-31T22:26:34.112Z,6.80
2023-01-31T22:29:04.283Z,6.80
2023-01-31T22:31:32.278Z,6.80
2023-01-31T22:34:01.070Z,6.70
2023-01-31T22:36:28.570Z,6.70
2023-01-31T22:38:55.970Z,6.70
2023-01-31T22:41:23.772Z,6.70
2023-01-31T22:43:52.872Z,6.70
2023-01-31T22:46:26.106Z,6.70
2023-01-31T22:48:54.429Z,6.70
2023-01-31T22:51:24.564Z,6.60
2023-01-31T22:53:52.223Z,6.60
2023-01-31T22:56:22.320Z,6.60
2023-01-31T22:58:54.117Z,6.60
2023-01-31T23:01:23.469Z,6.50
2023-01-31T23:03:51.108Z,6.50
2023-01-31T23:06:18.617Z,6.50
2023-01-31T23:08:46.481Z,6.60
2023-01-31T23:11:15.898Z,6.60
2023-01-31T23:13:43.565Z,6.60
2023-01-31T23:16:20.664Z,6.50
2023-01-31T23:18:48.441Z,6.40
2023-01-31T23:21:18.916Z,6.40
2023-01-31T23:23:46.645Z,6.40
2023-01-31T23:26:14.264Z,6.40
2023-01-31T23:28:41.854Z,6.40
2023-01-31T23:31:09.522Z,6.40
2023-01-31T23:33:37.017Z,6.40
2023-01-31T23:36:04.717Z,6.30
2023-01-31T23:38:32.352Z,6.30
2023-01-31T23:41:00.010Z,6.20
2023-01-31T23:43:27.463Z,6.20
2023-01-31T23:45:54.793Z,6.20
2023-01-31T23:48:22.084Z,6.20
2023-01-31T23:50:49.509Z,6.40
2023-01-31T23:53:17.271Z,6.30
2023-01-31T23:55:45.658Z,6.30
2023-01-31T23:58:12.968Z,6.30
